sensor_id;sensor_type;location;lat;lon;timestamp;P1;durP1;ratioP1;P2;durP2;ratioP2
20844;SDS011;10583;49.084;8.646;2023-08-06T00:00:00;3.00;;;3.00;;
20844;SDS011;10583;49.084;8.646;2023-08-06T00:02:29;2.77;;;2.77;;
20844;SDS011;10583;49.084;8.646;2023-08-06T00:05:00;2.57;;;2.57;;
20844;SDS011;10583;49.084;8.646;2023-08-06T00:07:29;2.80;;;2.80;;
20844;SDS011;10583;49.084;8.646;2023-08-06T00:09:57;2.90;;;2.90;;
20844;SDS011;10583;49.084;8.646;2023-08-06T00:12:25;2.83;;;2.83;;
20844;SDS011;10583;49.084;8.646;2023-08-06T00:14:53;2.80;;;2.80;;
20844;SDS011;10583;49.084;8.646;2023-08-06T00:17:20;2.97;;;2.97;;
20844;SDS011;10583;49.084;8.646;2023-08-06T00:19:48;2.90;;;2.90;;
20844;SDS011;10583;49.084;8.646;2023-08-06T00:22:17;3.27;;;3.27;;
20844;SDS011;10583;49.084;8.646;2023-08-06T00:24:45;3.30;;;3.30;;
20844;SDS011;10583;49.084;8.646;2023-08-06T00:27:12;3.10;;;3.10;;
20844;SDS011;10583;49.084;8.646;2023-08-06T00:29:40;3.63;;;3.63;;
20844;SDS011;10583;49.084;8.646;2023-08-06T00:32:08;3.40;;;3.40;;
20844;SDS011;10583;49.084;8.646;2023-08-06T00:34:35;3.43;;;3.43;;
20844;SDS011;10583;49.084;8.646;2023-08-06T00:37:03;3.20;;;3.20;;
20844;SDS011;10583;49.084;8.646;2023-08-06T00:39:32;3.67;;;3.67;;
20844;SDS011;10583;49.084;8.646;2023-08-06T00:42:00;3.10;;;3.10;;
20844;SDS011;10583;49.084;8.646;2023-08-06T00:44:27;2.93;;;2.93;;
20844;SDS011;10583;49.084;8.646;2023-08-06T00:46:55;3.27;;;3.27;;
20844;SDS011;10583;49.084;8.646;2023-08-06T00:49:22;3.30;;;3.30;;
20844;SDS011;10583;49.084;8.646;2023-08-06T00:51:50;2.90;;;2.90;;
20844;SDS011;10583;49.084;8.646;2023-08-06T00:54:18;2.80;;;2.80;;
20844;SDS011;10583;49.084;8.646;2023-08-06T00:56:48;3.17;;;3.17;;
20844;SDS011;10583;49.084;8.646;2023-08-06T00:59:16;3.43;;;3.43;;
20844;SDS011;10583;49.084;8.646;2023-08-06T01:01:44;3.30;;;3.30;;
20844;SDS011;10583;49.084;8.646;2023-08-06T01:04:13;2.80;;;2.80;;
20844;SDS011;10583;49.084;8.646;2023-08-06T01:06:43;3.00;;;3.00;;
20844;SDS011;10583;49.084;8.646;2023-08-06T01:09:19;3.60;;;3.60;;
20844;SDS011;10583;49.084;8.646;2023-08-06T01:11:59;3.20;;;3.20;;
20844;SDS011;10583;49.084;8.646;2023-08-06T01:14:35;3.17;;;3.17;;
20844;SDS011;10583;49.084;8.646;2023-08-06T01:17:13;3.13;;;3.13;;
20844;SDS011;10583;49.084;8.646;2023-08-06T01:19:44;3.63;;;3.63;;
20844;SDS011;10583;49.084;8.646;2023-08-06T01:22:15;3.40;;;3.40;;
20844;SDS011;10583;49.084;8.646;2023-08-06T01:24:45;2.97;;;2.97;;
20844;SDS011;10583;49.084;8.646;2023-08-06T01:27:20;2.37;;;2.37;;
20844;SDS011;10583;49.084;8.646;2023-08-06T01:29:55;2.70;;;2.70;;
20844;SDS011;10583;49.084;8.646;2023-08-06T01:32:31;2.63;;;2.63;;
20844;SDS011;10583;49.084;8.646;2023-08-06T01:35:02;2.73;;;2.73;;
20844;SDS011;10583;49.084;8.646;2023-08-06T01:37:36;2.57;;;2.57;;
20844;SDS011;10583;49.084;8.646;2023-08-06T01:40:07;2.70;;;2.70;;
20844;SDS011;10583;49.084;8.646;2023-08-06T01:42:38;2.17;;;2.17;;
20844;SDS011;10583;49.084;8.646;2023-08-06T01:45:08;2.50;;;2.50;;
20844;SDS011;10583;49.084;8.646;2023-08-06T01:47:36;2.80;;;2.80;;
20844;SDS011;10583;49.084;8.646;2023-08-06T01:50:05;2.80;;;2.80;;
20844;SDS011;10583;49.084;8.646;2023-08-06T01:52:33;3.10;;;3.10;;
20844;SDS011;10583;49.084;8.646;2023-08-06T01:55:02;2.93;;;2.93;;
20844;SDS011;10583;49.084;8.646;2023-08-06T01:57:30;2.60;;;2.60;;
20844;SDS011;10583;49.084;8.646;2023-08-06T01:59:58;3.13;;;3.13;;
20844;SDS011;10583;49.084;8.646;2023-08-06T02:02:26;3.10;;;3.10;;
20844;SDS011;10583;49.084;8.646;2023-08-06T02:04:53;2.70;;;2.70;;
20844;SDS011;10583;49.084;8.646;2023-08-06T02:07:23;2.90;;;2.90;;
20844;SDS011;10583;49.084;8.646;2023-08-06T02:09:51;2.90;;;2.90;;
20844;SDS011;10583;49.084;8.646;2023-08-06T02:12:20;3.20;;;3.20;;
20844;SDS011;10583;49.084;8.646;2023-08-06T02:14:48;3.30;;;3.30;;
20844;SDS011;10583;49.084;8.646;2023-08-06T02:17:16;2.93;;;2.93;;
20844;SDS011;10583;49.084;8.646;2023-08-06T02:19:43;2.53;;;2.53;;
20844;SDS011;10583;49.084;8.646;2023-08-06T02:22:11;3.10;;;3.10;;
20844;SDS011;10583;49.084;8.646;2023-08-06T02:24:39;2.90;;;2.90;;
20844;SDS011;10583;49.084;8.646;2023-08-06T02:27:06;2.70;;;2.70;;
20844;SDS011;10583;49.084;8.646;2023-08-06T02:29:35;2.83;;;2.83;;
20844;SDS011;10583;49.084;8.646;2023-08-06T02:32:03;2.67;;;2.67;;
20844;SDS011;10583;49.084;8.646;2023-08-06T02:34:31;2.90;;;2.90;;
20844;SDS011;10583;49.084;8.646;2023-08-06T02:36:58;2.90;;;2.90;;
20844;SDS011;10583;49.084;8.646;2023-08-06T02:39:26;2.40;;;2.40;;
20844;SDS011;10583;49.084;8.646;2023-08-06T02:41:53;2.90;;;2.90;;
20844;SDS011;10583;49.084;8.646;2023-08-06T02:44:21;2.57;;;2.57;;
20844;SDS011;10583;49.084;8.646;2023-08-06T02:46:50;2.03;;;2.03;;
20844;SDS011;10583;49.084;8.646;2023-08-06T02:49:18;2.30;;;2.30;;
20844;SDS011;10583;49.084;8.646;2023-08-06T02:51:45;2.23;;;2.23;;
20844;SDS011;10583;49.084;8.646;2023-08-06T02:54:13;2.30;;;2.30;;
20844;SDS011;10583;49.084;8.646;2023-08-06T02:56:42;2.10;;;2.10;;
20844;SDS011;10583;49.084;8.646;2023-08-06T02:59:11;2.57;;;2.57;;
20844;SDS011;10583;49.084;8.646;2023-08-06T03:01:39;2.73;;;2.73;;
20844;SDS011;10583;49.084;8.646;2023-08-06T03:04:08;2.47;;;2.47;;
20844;SDS011;10583;49.084;8.646;2023-08-06T03:06:36;2.40;;;2.40;;
20844;SDS011;10583;49.084;8.646;2023-08-06T03:09:03;2.20;;;2.20;;
20844;SDS011;10583;49.084;8.646;2023-08-06T03:11:31;2.20;;;2.20;;
20844;SDS011;10583;49.084;8.646;2023-08-06T03:13:59;2.17;;;2.17;;
20844;SDS011;10583;49.084;8.646;2023-08-06T03:16:27;2.20;;;2.20;;
20844;SDS011;10583;49.084;8.646;2023-08-06T03:18:54;2.40;;;2.40;;
20844;SDS011;10583;49.084;8.646;2023-08-06T03:21:23;2.80;;;2.80;;
20844;SDS011;10583;49.084;8.646;2023-08-06T03:23:51;2.30;;;2.30;;
20844;SDS011;10583;49.084;8.646;2023-08-06T03:26:18;2.57;;;2.57;;
20844;SDS011;10583;49.084;8.646;2023-08-06T03:28:46;2.50;;;2.50;;
20844;SDS011;10583;49.084;8.646;2023-08-06T03:31:13;2.30;;;2.30;;
20844;SDS011;10583;49.084;8.646;2023-08-06T03:33:41;2.83;;;2.83;;
20844;SDS011;10583;49.084;8.646;2023-08-06T03:36:08;2.50;;;2.50;;
20844;SDS011;10583;49.084;8.646;2023-08-06T03:38:37;2.60;;;2.60;;
20844;SDS011;10583;49.084;8.646;2023-08-06T03:41:05;2.50;;;2.50;;
20844;SDS011;10583;49.084;8.646;2023-08-06T03:43:33;2.23;;;2.23;;
20844;SDS011;10583;49.084;8.646;2023-08-06T03:46:01;1.87;;;1.87;;
20844;SDS011;10583;49.084;8.646;2023-08-06T03:48:28;2.17;;;2.17;;
20844;SDS011;10583;49.084;8.646;2023-08-06T03:50:56;1.50;;;1.50;;
20844;SDS011;10583;49.084;8.646;2023-08-06T03:53:26;1.93;;;1.93;;
20844;SDS011;10583;49.084;8.646;2023-08-06T03:55:55;2.13;;;2.13;;
20844;SDS011;10583;49.084;8.646;2023-08-06T03:58:25;2.10;;;2.10;;
20844;SDS011;10583;49.084;8.646;2023-08-06T04:00:57;1.97;;;1.97;;
20844;SDS011;10583;49.084;8.646;2023-08-06T04:03:25;1.87;;;1.87;;
20844;SDS011;10583;49.084;8.646;2023-08-06T04:05:53;1.80;;;1.80;;
20844;SDS011;10583;49.084;8.646;2023-08-06T04:08:21;1.40;;;1.40;;
20844;SDS011;10583;49.084;8.646;2023-08-06T04:10:49;2.17;;;2.17;;
20844;SDS011;10583;49.084;8.646;2023-08-06T04:13:19;1.93;;;1.93;;
20844;SDS011;10583;49.084;8.646;2023-08-06T04:15:46;1.57;;;1.57;;
20844;SDS011;10583;49.084;8.646;2023-08-06T04:18:15;1.57;;;1.57;;
20844;SDS011;10583;49.084;8.646;2023-08-06T04:20:43;1.60;;;1.60;;
20844;SDS011;10583;49.084;8.646;2023-08-06T04:23:11;1.30;;;1.30;;
20844;SDS011;10583;49.084;8.646;2023-08-06T04:25:39;1.57;;;1.57;;
20844;SDS011;10583;49.084;8.646;2023-08-06T04:28:06;1.53;;;1.53;;
20844;SDS011;10583;49.084;8.646;2023-08-06T04:30:36;1.60;;;1.60;;
20844;SDS011;10583;49.084;8.646;2023-08-06T04:33:04;1.30;;;1.30;;
20844;SDS011;10583;49.084;8.646;2023-08-06T04:35:32;1.50;;;1.50;;
20844;SDS011;10583;49.084;8.646;2023-08-06T04:38:00;1.60;;;1.60;;
20844;SDS011;10583;49.084;8.646;2023-08-06T04:40:27;1.40;;;1.40;;
20844;SDS011;10583;49.084;8.646;2023-08-06T04:42:55;1.63;;;1.63;;
20844;SDS011;10583;49.084;8.646;2023-08-06T04:45:22;1.10;;;1.10;;
20844;SDS011;10583;49.084;8.646;2023-08-06T04:47:51;1.60;;;1.60;;
20844;SDS011;10583;49.084;8.646;2023-08-06T04:50:19;1.30;;;1.30;;
20844;SDS011;10583;49.084;8.646;2023-08-06T04:52:47;1.50;;;1.50;;
20844;SDS011;10583;49.084;8.646;2023-08-06T04:55:15;1.90;;;1.90;;
20844;SDS011;10583;49.084;8.646;2023-08-06T04:57:43;1.30;;;1.30;;
20844;SDS011;10583;49.084;8.646;2023-08-06T05:00:11;1.40;;;1.40;;
20844;SDS011;10583;49.084;8.646;2023-08-06T05:02:39;1.20;;;1.20;;
20844;SDS011;10583;49.084;8.646;2023-08-06T05:05:08;1.17;;;1.17;;
20844;SDS011;10583;49.084;8.646;2023-08-06T05:07:35;1.23;;;1.23;;
20844;SDS011;10583;49.084;8.646;2023-08-06T05:10:03;1.50;;;1.50;;
20844;SDS011;10583;49.084;8.646;2023-08-06T05:12:31;1.37;;;1.37;;
20844;SDS011;10583;49.084;8.646;2023-08-06T05:14:59;1.37;;;1.37;;
20844;SDS011;10583;49.084;8.646;2023-08-06T05:17:26;1.10;;;1.10;;
20844;SDS011;10583;49.084;8.646;2023-08-06T05:19:54;1.30;;;1.30;;
20844;SDS011;10583;49.084;8.646;2023-08-06T05:22:24;1.30;;;1.30;;
20844;SDS011;10583;49.084;8.646;2023-08-06T05:24:51;1.40;;;1.40;;
20844;SDS011;10583;49.084;8.646;2023-08-06T05:27:19;1.20;;;1.20;;
20844;SDS011;10583;49.084;8.646;2023-08-06T05:29:47;1.40;;;1.40;;
20844;SDS011;10583;49.084;8.646;2023-08-06T05:32:15;1.10;;;1.10;;
20844;SDS011;10583;49.084;8.646;2023-08-06T05:34:43;1.43;;;1.43;;
20844;SDS011;10583;49.084;8.646;2023-08-06T05:37:11;1.60;;;1.60;;
20844;SDS011;10583;49.084;8.646;2023-08-06T05:39:40;1.33;;;1.33;;
20844;SDS011;10583;49.084;8.646;2023-08-06T05:42:07;1.50;;;1.50;;
20844;SDS011;10583;49.084;8.646;2023-08-06T05:44:35;1.67;;;1.67;;
20844;SDS011;10583;49.084;8.646;2023-08-06T05:47:03;1.27;;;1.27;;
20844;SDS011;10583;49.084;8.646;2023-08-06T05:49:30;1.60;;;1.60;;
20844;SDS011;10583;49.084;8.646;2023-08-06T05:51:58;1.40;;;1.40;;
20844;SDS011;10583;49.084;8.646;2023-08-06T05:54:26;1.43;;;1.43;;
20844;SDS011;10583;49.084;8.646;2023-08-06T05:56:55;1.20;;;1.20;;
20844;SDS011;10583;49.084;8.646;2023-08-06T05:59:23;1.43;;;1.43;;
20844;SDS011;10583;49.084;8.646;2023-08-06T06:01:50;1.20;;;1.20;;
20844;SDS011;10583;49.084;8.646;2023-08-06T06:04:18;1.30;;;1.30;;
20844;SDS011;10583;49.084;8.646;2023-08-06T06:06:45;1.10;;;1.10;;
20844;SDS011;10583;49.084;8.646;2023-08-06T06:09:13;1.00;;;1.00;;
20844;SDS011;10583;49.084;8.646;2023-08-06T06:11:40;1.30;;;1.30;;
20844;SDS011;10583;49.084;8.646;2023-08-06T06:14:09;0.97;;;0.97;;
20844;SDS011;10583;49.084;8.646;2023-08-06T06:16:37;1.10;;;1.10;;
20844;SDS011;10583;49.084;8.646;2023-08-06T06:19:04;1.10;;;1.10;;
20844;SDS011;10583;49.084;8.646;2023-08-06T06:21:32;0.90;;;0.90;;
20844;SDS011;10583;49.084;8.646;2023-08-06T06:24:00;0.90;;;0.90;;
20844;SDS011;10583;49.084;8.646;2023-08-06T06:26:28;0.80;;;0.80;;
20844;SDS011;10583;49.084;8.646;2023-08-06T06:28:55;0.80;;;0.80;;
20844;SDS011;10583;49.084;8.646;2023-08-06T06:31:24;0.90;;;0.90;;
20844;SDS011;10583;49.084;8.646;2023-08-06T06:33:52;0.80;;;0.80;;
20844;SDS011;10583;49.084;8.646;2023-08-06T06:36:20;0.83;;;0.83;;
20844;SDS011;10583;49.084;8.646;2023-08-06T06:38:48;0.83;;;0.83;;
20844;SDS011;10583;49.084;8.646;2023-08-06T06:41:16;0.70;;;0.70;;
20844;SDS011;10583;49.084;8.646;2023-08-06T06:43:44;0.50;;;0.50;;
20844;SDS011;10583;49.084;8.646;2023-08-06T06:46:11;0.73;;;0.73;;
20844;SDS011;10583;49.084;8.646;2023-08-06T06:48:41;0.70;;;0.70;;
20844;SDS011;10583;49.084;8.646;2023-08-06T06:51:08;0.50;;;0.50;;
20844;SDS011;10583;49.084;8.646;2023-08-06T06:53:36;0.50;;;0.50;;
20844;SDS011;10583;49.084;8.646;2023-08-06T06:56:03;0.60;;;0.60;;
20844;SDS011;10583;49.084;8.646;2023-08-06T06:58:31;0.60;;;0.60;;
20844;SDS011;10583;49.084;8.646;2023-08-06T07:00:59;0.53;;;0.53;;
20844;SDS011;10583;49.084;8.646;2023-08-06T07:03:27;0.63;;;0.63;;
20844;SDS011;10583;49.084;8.646;2023-08-06T07:05:58;0.40;;;0.40;;
20844;SDS011;10583;49.084;8.646;2023-08-06T07:08:27;0.50;;;0.50;;
20844;SDS011;10583;49.084;8.646;2023-08-06T07:10:59;0.40;;;0.40;;
20844;SDS011;10583;49.084;8.646;2023-08-06T07:13:28;0.47;;;0.47;;
20844;SDS011;10583;49.084;8.646;2023-08-06T07:15:57;0.40;;;0.40;;
20844;SDS011;10583;49.084;8.646;2023-08-06T07:18:25;0.50;;;0.50;;
20844;SDS011;10583;49.084;8.646;2023-08-06T07:20:54;0.50;;;0.50;;
20844;SDS011;10583;49.084;8.646;2023-08-06T07:23:24;0.77;;;0.77;;
20844;SDS011;10583;49.084;8.646;2023-08-06T07:25:53;0.63;;;0.63;;
20844;SDS011;10583;49.084;8.646;2023-08-06T07:28:20;0.50;;;0.50;;
20844;SDS011;10583;49.084;8.646;2023-08-06T07:30:48;0.33;;;0.33;;
20844;SDS011;10583;49.084;8.646;2023-08-06T07:33:16;0.50;;;0.50;;
20844;SDS011;10583;49.084;8.646;2023-08-06T07:35:43;0.60;;;0.60;;
20844;SDS011;10583;49.084;8.646;2023-08-06T07:38:11;0.50;;;0.50;;
20844;SDS011;10583;49.084;8.646;2023-08-06T07:40:39;0.60;;;0.60;;
20844;SDS011;10583;49.084;8.646;2023-08-06T07:43:06;0.50;;;0.50;;
20844;SDS011;10583;49.084;8.646;2023-08-06T07:45:33;0.60;;;0.60;;
20844;SDS011;10583;49.084;8.646;2023-08-06T07:48:00;0.60;;;0.60;;
20844;SDS011;10583;49.084;8.646;2023-08-06T07:50:27;0.53;;;0.53;;
20844;SDS011;10583;49.084;8.646;2023-08-06T07:52:54;0.40;;;0.40;;
20844;SDS011;10583;49.084;8.646;2023-08-06T07:55:21;0.40;;;0.40;;
20844;SDS011;10583;49.084;8.646;2023-08-06T07:57:49;0.70;;;0.70;;
20844;SDS011;10583;49.084;8.646;2023-08-06T08:00:16;0.60;;;0.60;;
20844;SDS011;10583;49.084;8.646;2023-08-06T08:02:44;0.30;;;0.30;;
20844;SDS011;10583;49.084;8.646;2023-08-06T08:05:11;0.43;;;0.43;;
20844;SDS011;10583;49.084;8.646;2023-08-06T08:07:37;0.53;;;0.53;;
20844;SDS011;10583;49.084;8.646;2023-08-06T08:10:05;0.40;;;0.40;;
20844;SDS011;10583;49.084;8.646;2023-08-06T08:12:32;0.30;;;0.30;;
20844;SDS011;10583;49.084;8.646;2023-08-06T08:15:00;0.43;;;0.43;;
20844;SDS011;10583;49.084;8.646;2023-08-06T08:17:28;0.40;;;0.40;;
20844;SDS011;10583;49.084;8.646;2023-08-06T08:19:54;0.40;;;0.40;;
20844;SDS011;10583;49.084;8.646;2023-08-06T08:22:21;0.40;;;0.40;;
20844;SDS011;10583;49.084;8.646;2023-08-06T08:24:48;0.30;;;0.30;;
20844;SDS011;10583;49.084;8.646;2023-08-06T08:27:15;0.40;;;0.40;;
20844;SDS011;10583;49.084;8.646;2023-08-06T08:29:42;0.20;;;0.20;;
20844;SDS011;10583;49.084;8.646;2023-08-06T08:32:10;0.40;;;0.40;;
20844;SDS011;10583;49.084;8.646;2023-08-06T08:34:36;0.57;;;0.57;;
20844;SDS011;10583;49.084;8.646;2023-08-06T08:37:03;0.37;;;0.37;;
20844;SDS011;10583;49.084;8.646;2023-08-06T08:39:31;0.30;;;0.30;;
20844;SDS011;10583;49.084;8.646;2023-08-06T08:41:57;0.23;;;0.23;;
20844;SDS011;10583;49.084;8.646;2023-08-06T08:47:47;0.30;;;0.30;;
20844;SDS011;10583;49.084;8.646;2023-08-06T08:50:14;0.40;;;0.40;;
20844;SDS011;10583;49.084;8.646;2023-08-06T08:52:42;0.50;;;0.50;;
20844;SDS011;10583;49.084;8.646;2023-08-06T08:55:10;0.40;;;0.40;;
20844;SDS011;10583;49.084;8.646;2023-08-06T08:57:40;0.50;;;0.50;;
20844;SDS011;10583;49.084;8.646;2023-08-06T09:00:07;0.30;;;0.30;;
20844;SDS011;10583;49.084;8.646;2023-08-06T09:02:34;0.50;;;0.50;;
20844;SDS011;10583;49.084;8.646;2023-08-06T09:05:05;0.50;;;0.50;;
20844;SDS011;10583;49.084;8.646;2023-08-06T09:07:34;0.40;;;0.40;;
20844;SDS011;10583;49.084;8.646;2023-08-06T09:10:05;0.40;;;0.40;;
20844;SDS011;10583;49.084;8.646;2023-08-06T09:12:35;0.37;;;0.37;;
20844;SDS011;10583;49.084;8.646;2023-08-06T09:15:02;0.50;;;0.50;;
20844;SDS011;10583;49.084;8.646;2023-08-06T09:17:29;0.40;;;0.40;;
20844;SDS011;10583;49.084;8.646;2023-08-06T09:19:56;0.50;;;0.50;;
20844;SDS011;10583;49.084;8.646;2023-08-06T09:22:25;0.40;;;0.40;;
20844;SDS011;10583;49.084;8.646;2023-08-06T09:25:00;0.40;;;0.40;;
20844;SDS011;10583;49.084;8.646;2023-08-06T09:27:28;0.33;;;0.33;;
20844;SDS011;10583;49.084;8.646;2023-08-06T09:29:55;0.60;;;0.60;;
20844;SDS011;10583;49.084;8.646;2023-08-06T09:32:22;0.40;;;0.40;;
20844;SDS011;10583;49.084;8.646;2023-08-06T09:34:54;0.30;;;0.30;;
20844;SDS011;10583;49.084;8.646;2023-08-06T09:37:22;0.53;;;0.53;;
20844;SDS011;10583;49.084;8.646;2023-08-06T09:39:50;0.70;;;0.70;;
20844;SDS011;10583;49.084;8.646;2023-08-06T09:42:18;0.67;;;0.67;;
20844;SDS011;10583;49.084;8.646;2023-08-06T09:44:45;0.40;;;0.40;;
20844;SDS011;10583;49.084;8.646;2023-08-06T09:47:12;0.50;;;0.50;;
20844;SDS011;10583;49.084;8.646;2023-08-06T09:49:43;0.60;;;0.60;;
20844;SDS011;10583;49.084;8.646;2023-08-06T09:52:11;0.30;;;0.30;;
20844;SDS011;10583;49.084;8.646;2023-08-06T09:54:40;0.30;;;0.30;;
20844;SDS011;10583;49.084;8.646;2023-08-06T09:57:11;0.20;;;0.20;;
20844;SDS011;10583;49.084;8.646;2023-08-06T09:59:38;0.40;;;0.40;;
20844;SDS011;10583;49.084;8.646;2023-08-06T10:02:12;0.50;;;0.50;;
20844;SDS011;10583;49.084;8.646;2023-08-06T10:04:39;0.50;;;0.50;;
20844;SDS011;10583;49.084;8.646;2023-08-06T10:07:07;0.50;;;0.50;;
20844;SDS011;10583;49.084;8.646;2023-08-06T10:09:35;0.40;;;0.40;;
20844;SDS011;10583;49.084;8.646;2023-08-06T10:12:02;0.40;;;0.40;;
20844;SDS011;10583;49.084;8.646;2023-08-06T10:14:32;0.30;;;0.30;;
20844;SDS011;10583;49.084;8.646;2023-08-06T10:17:01;0.30;;;0.30;;
20844;SDS011;10583;49.084;8.646;2023-08-06T10:19:28;0.57;;;0.57;;
20844;SDS011;10583;49.084;8.646;2023-08-06T10:22:09;0.40;;;0.40;;
20844;SDS011;10583;49.084;8.646;2023-08-06T10:24:49;0.30;;;0.30;;
20844;SDS011;10583;49.084;8.646;2023-08-06T10:27:27;0.33;;;0.33;;
20844;SDS011;10583;49.084;8.646;2023-08-06T10:29:57;0.50;;;0.50;;
20844;SDS011;10583;49.084;8.646;2023-08-06T10:32:47;0.30;;;0.30;;
20844;SDS011;10583;49.084;8.646;2023-08-06T10:35:27;0.60;;;0.60;;
20844;SDS011;10583;49.084;8.646;2023-08-06T10:37:57;0.67;;;0.67;;
20844;SDS011;10583;49.084;8.646;2023-08-06T10:40:25;0.50;;;0.50;;
20844;SDS011;10583;49.084;8.646;2023-08-06T10:42:52;0.80;;;0.80;;
20844;SDS011;10583;49.084;8.646;2023-08-06T10:45:20;0.60;;;0.60;;
20844;SDS011;10583;49.084;8.646;2023-08-06T10:47:49;0.60;;;0.60;;
20844;SDS011;10583;49.084;8.646;2023-08-06T10:50:16;0.70;;;0.70;;
20844;SDS011;10583;49.084;8.646;2023-08-06T10:52:43;0.60;;;0.60;;
20844;SDS011;10583;49.084;8.646;2023-08-06T10:55:10;0.80;;;0.80;;
20844;SDS011;10583;49.084;8.646;2023-08-06T10:57:37;1.10;;;1.10;;
20844;SDS011;10583;49.084;8.646;2023-08-06T11:00:04;0.80;;;0.80;;
20844;SDS011;10583;49.084;8.646;2023-08-06T11:02:34;1.00;;;1.00;;
20844;SDS011;10583;49.084;8.646;2023-08-06T11:05:05;1.13;;;1.13;;
20844;SDS011;10583;49.084;8.646;2023-08-06T11:07:32;1.30;;;1.30;;
20844;SDS011;10583;49.084;8.646;2023-08-06T11:10:03;1.30;;;1.30;;
20844;SDS011;10583;49.084;8.646;2023-08-06T11:12:30;1.20;;;1.20;;
20844;SDS011;10583;49.084;8.646;2023-08-06T11:14:57;1.33;;;1.33;;
20844;SDS011;10583;49.084;8.646;2023-08-06T11:17:24;1.33;;;1.33;;
20844;SDS011;10583;49.084;8.646;2023-08-06T11:19:52;1.77;;;1.77;;
20844;SDS011;10583;49.084;8.646;2023-08-06T11:22:20;1.50;;;1.50;;
20844;SDS011;10583;49.084;8.646;2023-08-06T11:24:47;1.80;;;1.80;;
20844;SDS011;10583;49.084;8.646;2023-08-06T11:27:13;1.83;;;1.83;;
20844;SDS011;10583;49.084;8.646;2023-08-06T11:29:41;1.90;;;1.90;;
20844;SDS011;10583;49.084;8.646;2023-08-06T11:32:08;1.60;;;1.60;;
20844;SDS011;10583;49.084;8.646;2023-08-06T11:34:36;1.93;;;1.93;;
20844;SDS011;10583;49.084;8.646;2023-08-06T11:37:05;1.90;;;1.90;;
20844;SDS011;10583;49.084;8.646;2023-08-06T11:39:32;2.40;;;2.40;;
20844;SDS011;10583;49.084;8.646;2023-08-06T11:41:59;1.90;;;1.90;;
20844;SDS011;10583;49.084;8.646;2023-08-06T11:44:29;2.07;;;2.07;;
20844;SDS011;10583;49.084;8.646;2023-08-06T11:46:58;2.10;;;2.10;;
20844;SDS011;10583;49.084;8.646;2023-08-06T11:49:39;2.27;;;2.27;;
20844;SDS011;10583;49.084;8.646;2023-08-06T11:52:15;2.60;;;2.60;;
20844;SDS011;10583;49.084;8.646;2023-08-06T11:54:44;2.10;;;2.10;;
20844;SDS011;10583;49.084;8.646;2023-08-06T11:57:11;2.03;;;2.03;;
20844;SDS011;10583;49.084;8.646;2023-08-06T11:59:39;2.30;;;2.30;;
20844;SDS011;10583;49.084;8.646;2023-08-06T12:02:08;2.33;;;2.33;;
20844;SDS011;10583;49.084;8.646;2023-08-06T12:07:28;2.03;;;2.03;;
20844;SDS011;10583;49.084;8.646;2023-08-06T12:09:55;2.47;;;2.47;;
20844;SDS011;10583;49.084;8.646;2023-08-06T12:12:22;2.30;;;2.30;;
20844;SDS011;10583;49.084;8.646;2023-08-06T12:14:49;2.23;;;2.23;;
20844;SDS011;10583;49.084;8.646;2023-08-06T12:17:16;2.80;;;2.80;;
20844;SDS011;10583;49.084;8.646;2023-08-06T12:19:44;2.60;;;2.60;;
20844;SDS011;10583;49.084;8.646;2023-08-06T12:22:11;2.17;;;2.17;;
20844;SDS011;10583;49.084;8.646;2023-08-06T12:24:39;2.40;;;2.40;;
20844;SDS011;10583;49.084;8.646;2023-08-06T12:27:06;2.70;;;2.70;;
20844;SDS011;10583;49.084;8.646;2023-08-06T12:29:33;2.50;;;2.50;;
20844;SDS011;10583;49.084;8.646;2023-08-06T12:32:00;2.17;;;2.17;;
20844;SDS011;10583;49.084;8.646;2023-08-06T12:34:27;2.80;;;2.80;;
20844;SDS011;10583;49.084;8.646;2023-08-06T12:36:53;2.20;;;2.20;;
20844;SDS011;10583;49.084;8.646;2023-08-06T12:39:20;2.30;;;2.30;;
20844;SDS011;10583;49.084;8.646;2023-08-06T12:41:48;2.27;;;2.27;;
20844;SDS011;10583;49.084;8.646;2023-08-06T12:44:15;2.57;;;2.57;;
20844;SDS011;10583;49.084;8.646;2023-08-06T12:46:42;2.10;;;2.10;;
20844;SDS011;10583;49.084;8.646;2023-08-06T12:49:08;2.00;;;2.00;;
20844;SDS011;10583;49.084;8.646;2023-08-06T12:51:35;2.17;;;2.17;;
20844;SDS011;10583;49.084;8.646;2023-08-06T12:54:02;1.90;;;1.90;;
20844;SDS011;10583;49.084;8.646;2023-08-06T12:56:28;1.60;;;1.60;;
20844;SDS011;10583;49.084;8.646;2023-08-06T12:58:56;1.90;;;1.90;;
20844;SDS011;10583;49.084;8.646;2023-08-06T13:01:23;1.60;;;1.60;;
20844;SDS011;10583;49.084;8.646;2023-08-06T13:03:50;2.63;;;2.63;;
20844;SDS011;10583;49.084;8.646;2023-08-06T13:06:17;1.90;;;1.90;;
20844;SDS011;10583;49.084;8.646;2023-08-06T13:08:43;2.43;;;2.43;;
20844;SDS011;10583;49.084;8.646;2023-08-06T13:11:10;1.97;;;1.97;;
20844;SDS011;10583;49.084;8.646;2023-08-06T13:13:37;2.23;;;2.23;;
20844;SDS011;10583;49.084;8.646;2023-08-06T13:16:05;1.70;;;1.70;;
20844;SDS011;10583;49.084;8.646;2023-08-06T13:18:31;1.50;;;1.50;;
20844;SDS011;10583;49.084;8.646;2023-08-06T13:20:58;1.73;;;1.73;;
20844;SDS011;10583;49.084;8.646;2023-08-06T13:23:37;2.10;;;2.10;;
20844;SDS011;10583;49.084;8.646;2023-08-06T13:26:03;1.37;;;1.37;;
20844;SDS011;10583;49.084;8.646;2023-08-06T13:28:30;1.30;;;1.30;;
20844;SDS011;10583;49.084;8.646;2023-08-06T13:30:57;1.10;;;1.10;;
20844;SDS011;10583;49.084;8.646;2023-08-06T13:33:25;1.00;;;1.00;;
20844;SDS011;10583;49.084;8.646;2023-08-06T13:35:52;1.00;;;1.00;;
20844;SDS011;10583;49.084;8.646;2023-08-06T13:38:19;1.00;;;1.00;;
20844;SDS011;10583;49.084;8.646;2023-08-06T13:40:45;0.90;;;0.90;;
20844;SDS011;10583;49.084;8.646;2023-08-06T13:43:12;0.83;;;0.83;;
20844;SDS011;10583;49.084;8.646;2023-08-06T13:45:40;0.60;;;0.60;;
20844;SDS011;10583;49.084;8.646;2023-08-06T13:48:07;0.70;;;0.70;;
20844;SDS011;10583;49.084;8.646;2023-08-06T13:50:36;0.67;;;0.67;;
20844;SDS011;10583;49.084;8.646;2023-08-06T13:53:03;1.00;;;1.00;;
20844;SDS011;10583;49.084;8.646;2023-08-06T13:55:30;0.60;;;0.60;;
20844;SDS011;10583;49.084;8.646;2023-08-06T13:57:57;0.80;;;0.80;;
20844;SDS011;10583;49.084;8.646;2023-08-06T14:00:23;0.80;;;0.80;;
20844;SDS011;10583;49.084;8.646;2023-08-06T14:02:50;0.60;;;0.60;;
20844;SDS011;10583;49.084;8.646;2023-08-06T14:05:17;0.80;;;0.80;;
20844;SDS011;10583;49.084;8.646;2023-08-06T14:07:45;0.70;;;0.70;;
20844;SDS011;10583;49.084;8.646;2023-08-06T14:10:11;0.70;;;0.70;;
20844;SDS011;10583;49.084;8.646;2023-08-06T14:12:38;0.80;;;0.80;;
20844;SDS011;10583;49.084;8.646;2023-08-06T14:15:05;0.83;;;0.83;;
20844;SDS011;10583;49.084;8.646;2023-08-06T14:17:32;0.73;;;0.73;;
20844;SDS011;10583;49.084;8.646;2023-08-06T14:19:59;0.90;;;0.90;;
20844;SDS011;10583;49.084;8.646;2023-08-06T14:22:28;0.70;;;0.70;;
20844;SDS011;10583;49.084;8.646;2023-08-06T14:24:56;0.70;;;0.70;;
20844;SDS011;10583;49.084;8.646;2023-08-06T14:27:24;0.77;;;0.77;;
20844;SDS011;10583;49.084;8.646;2023-08-06T14:29:50;0.80;;;0.80;;
20844;SDS011;10583;49.084;8.646;2023-08-06T14:32:17;0.70;;;0.70;;
20844;SDS011;10583;49.084;8.646;2023-08-06T14:34:44;0.80;;;0.80;;
20844;SDS011;10583;49.084;8.646;2023-08-06T14:37:11;0.80;;;0.80;;
20844;SDS011;10583;49.084;8.646;2023-08-06T14:39:37;0.80;;;0.80;;
20844;SDS011;10583;49.084;8.646;2023-08-06T14:42:06;0.70;;;0.70;;
20844;SDS011;10583;49.084;8.646;2023-08-06T14:44:32;2.30;;;2.30;;
20844;SDS011;10583;49.084;8.646;2023-08-06T14:46:59;1.47;;;1.47;;
20844;SDS011;10583;49.084;8.646;2023-08-06T14:49:26;1.50;;;1.50;;
20844;SDS011;10583;49.084;8.646;2023-08-06T14:51:52;0.67;;;0.67;;
20844;SDS011;10583;49.084;8.646;2023-08-06T14:54:19;0.70;;;0.70;;
20844;SDS011;10583;49.084;8.646;2023-08-06T14:56:46;0.90;;;0.90;;
20844;SDS011;10583;49.084;8.646;2023-08-06T14:59:14;0.80;;;0.80;;